createdAt,value
2018-12-05T00:00:10.058Z,7.32
2018-12-05T00:02:40.291Z,7.54
2018-12-05T00:05:10.145Z,7.55
2018-12-05T00:07:39.890Z,7.55
2018-12-05T00:10:09.576Z,7.54
2018-12-05T00:12:39.349Z,7.31
2018-12-05T00:15:09.284Z,6.79
2018-12-05T00:17:39.050Z,6.74
2018-12-05T00:20:08.989Z,6.92
2018-12-05T00:22:38.655Z,7.37
2018-12-05T00:25:08.509Z,7.57
2018-12-05T00:27:38.260Z,7.62
2018-12-05T00:30:08.285Z,7.65
2018-12-05T00:32:38.258Z,7.46
2018-12-05T00:35:07.951Z,7.54
2018-12-05T00:37:37.611Z,7.63
2018-12-05T00:40:07.483Z,7.57
2018-12-05T00:42:37.235Z,7.69
2018-12-05T00:45:07.509Z,7.73
2018-12-05T00:47:37.325Z,7.80
2018-12-05T00:50:07.325Z,7.77
2018-12-05T00:52:37.000Z,7.85
2018-12-05T00:55:06.915Z,7.84
2018-12-05T00:57:36.567Z,7.86
2018-12-05T01:00:08.041Z,7.88
2018-12-05T01:02:38.174Z,7.81
2018-12-05T01:05:08.065Z,7.79
2018-12-05T01:07:37.863Z,7.76
2018-12-05T01:10:08.284Z,7.83
2018-12-05T01:12:38.063Z,7.86
2018-12-05T01:15:07.975Z,7.82
2018-12-05T01:17:37.539Z,7.87
2018-12-05T01:20:07.590Z,7.90
2018-12-05T01:22:37.319Z,7.86
2018-12-05T01:25:07.483Z,7.63
2018-12-05T01:27:37.249Z,7.79
2018-12-05T01:30:07.698Z,7.82
2018-12-05T01:32:39.188Z,7.87
2018-12-05T01:35:09.849Z,7.91
2018-12-05T01:37:40.171Z,7.93
2018-12-05T01:40:10.708Z,7.90
2018-12-05T01:42:41.211Z,7.94
2018-12-05T01:45:10.975Z,7.81
2018-12-05T01:47:40.718Z,7.80
2018-12-05T01:50:10.464Z,7.61
2018-12-05T01:52:39.942Z,7.45
2018-12-05T01:55:09.826Z,7.71
2018-12-05T01:57:39.539Z,7.92
2018-12-05T02:00:09.933Z,7.87
2018-12-05T02:02:40.565Z,7.48
2018-12-05T02:05:10.971Z,7.69
2018-12-05T02:07:41.301Z,7.72
2018-12-05T02:10:12.016Z,7.76
2018-12-05T02:12:42.646Z,7.87
2018-12-05T02:15:13.073Z,7.50
2018-12-05T02:17:44.356Z,7.51
2018-12-05T02:20:14.704Z,7.38
2018-12-05T02:22:44.883Z,7.05
2018-12-05T02:25:15.103Z,7.23
2018-12-05T02:27:45.828Z,7.04
2018-12-05T02:30:16.478Z,7.45
2018-12-05T02:32:47.205Z,7.48
2018-12-05T02:35:18.143Z,7.12
2018-12-05T02:37:48.526Z,7.25
2018-12-05T02:40:19.079Z,7.41
2018-12-05T02:42:49.488Z,7.41
2018-12-05T02:45:19.237Z,7.51
2018-12-05T02:47:49.231Z,7.62
2018-12-05T02:50:18.887Z,7.64
2018-12-05T02:52:48.827Z,7.67
2018-12-05T02:55:18.643Z,7.66
2018-12-05T02:57:48.351Z,7.59
2018-12-05T03:00:18.029Z,7.63
2018-12-05T03:02:47.758Z,7.46
2018-12-05T03:05:17.607Z,7.46
2018-12-05T03:07:47.212Z,7.61
2018-12-05T03:10:16.894Z,7.72
2018-12-05T03:12:46.548Z,7.69
2018-12-05T03:15:16.225Z,7.38
2018-12-05T03:17:45.807Z,6.19
2018-12-05T03:20:15.355Z,6.46
2018-12-05T03:22:45.092Z,6.98
2018-12-05T03:25:14.699Z,6.92
2018-12-05T03:27:44.350Z,6.62
2018-12-05T03:30:14.102Z,6.49
2018-12-05T03:32:43.927Z,6.83
2018-12-05T03:35:13.696Z,7.14
2018-12-05T03:37:43.677Z,7.32
2018-12-05T03:40:13.481Z,7.44
2018-12-05T03:42:43.161Z,7.51
2018-12-05T03:45:13.000Z,7.55
2018-12-05T03:47:42.742Z,7.49
2018-12-05T03:50:12.982Z,7.12
2018-12-05T03:52:43.399Z,7.22
2018-12-05T03:55:13.941Z,7.21
2018-12-05T03:57:44.470Z,7.28
2018-12-05T04:00:15.107Z,7.30
2018-12-05T04:02:45.752Z,6.55
2018-12-05T04:05:16.529Z,6.57
2018-12-05T04:07:46.276Z,6.79
2018-12-05T04:10:16.301Z,6.92
2018-12-05T04:12:46.950Z,7.06
2018-12-05T04:15:16.568Z,7.17
2018-12-05T04:17:46.205Z,7.26
2018-12-05T04:20:15.955Z,7.32
2018-12-05T04:22:45.905Z,7.36
2018-12-05T04:25:15.531Z,7.35
2018-12-05T04:27:45.122Z,7.35
2018-12-05T04:30:14.736Z,7.36
2018-12-05T04:32:44.457Z,7.35
2018-12-05T04:35:15.080Z,7.26
2018-12-05T04:37:45.718Z,6.84
2018-12-05T04:40:16.507Z,6.53
2018-12-05T04:42:47.127Z,6.26
2018-12-05T04:45:16.957Z,6.46
2018-12-05T04:47:46.602Z,6.45
2018-12-05T04:50:16.330Z,6.37
2018-12-05T04:52:46.106Z,6.50
2018-12-05T04:55:15.921Z,6.27
2018-12-05T04:57:46.169Z,6.30
2018-12-05T05:00:16.704Z,6.59
2018-12-05T05:02:46.904Z,6.42
2018-12-05T05:05:16.770Z,6.70
2018-12-05T05:07:46.572Z,6.79
2018-12-05T05:10:17.353Z,6.83
2018-12-05T05:12:47.514Z,6.82
2018-12-05T05:15:17.249Z,6.84
2018-12-05T05:17:47.027Z,6.77
2018-12-05T05:20:16.686Z,6.83
2018-12-05T05:22:46.496Z,6.98
2018-12-05T05:25:16.782Z,6.90
2018-12-05T05:27:46.811Z,6.66
2018-12-05T05:30:17.237Z,6.73
2018-12-05T05:32:52.056Z,6.46
2018-12-05T05:35:22.896Z,6.46
2018-12-05T05:37:53.594Z,6.49
2018-12-05T05:40:24.277Z,6.36
2018-12-05T05:42:54.084Z,6.53
2018-12-05T05:45:23.978Z,6.80
2018-12-05T05:47:53.753Z,7.24
2018-12-05T05:50:23.442Z,7.38
2018-12-05T05:52:53.190Z,7.47
2018-12-05T05:55:22.864Z,7.42
2018-12-05T05:57:52.675Z,7.39
2018-12-05T06:00:22.428Z,7.20
2018-12-05T06:02:52.153Z,7.19
2018-12-05T06:05:21.824Z,7.66
2018-12-05T06:07:51.620Z,7.59
2018-12-05T06:10:52.612Z,7.73
2018-12-05T06:13:23.048Z,7.82
2018-12-05T06:15:53.443Z,7.65
2018-12-05T06:18:23.807Z,7.46
2018-12-05T06:20:54.700Z,6.89
2018-12-05T06:23:25.224Z,6.71
2018-12-05T06:25:55.745Z,6.74
2018-12-05T06:28:26.193Z,7.03
2018-12-05T06:30:57.123Z,6.84
2018-12-05T06:33:27.386Z,6.87
2018-12-05T06:35:57.688Z,7.15
2018-12-05T06:38:28.219Z,7.19
2018-12-05T06:40:59.589Z,7.47
2018-12-05T06:43:29.848Z,7.36
2018-12-05T06:46:00.380Z,7.47
2018-12-05T06:48:30.814Z,7.43
2018-12-05T06:51:02.445Z,7.42
2018-12-05T06:53:33.370Z,7.66
2018-12-05T06:56:03.883Z,7.91
2018-12-05T06:58:34.440Z,7.96
2018-12-05T07:01:05.596Z,8.04
2018-12-05T07:03:36.131Z,8.10
2018-12-05T07:06:06.648Z,7.93
2018-12-05T07:08:36.715Z,8.13
2018-12-05T07:11:07.662Z,8.18
2018-12-05T07:13:38.176Z,7.96
2018-12-05T07:16:10.061Z,7.67
2018-12-05T07:18:40.384Z,7.91
2018-12-05T07:21:11.720Z,8.02
2018-12-05T07:23:42.062Z,8.04
2018-12-05T07:26:12.568Z,8.30
2018-12-05T07:28:43.002Z,8.40
2018-12-05T07:31:14.749Z,8.50
2018-12-05T07:33:44.969Z,8.49
2018-12-05T07:36:15.373Z,8.71
2018-12-05T07:38:45.847Z,8.79
2018-12-05T07:41:16.406Z,8.86
2018-12-05T07:43:46.641Z,9.04
2018-12-05T07:46:16.306Z,8.99
2018-12-05T07:48:45.838Z,9.39
2018-12-05T07:51:15.891Z,9.66
2018-12-05T07:53:46.336Z,9.81
2018-12-05T07:56:16.715Z,9.96
2018-12-05T07:58:46.952Z,10.04
2018-12-05T08:01:17.776Z,10.13
2018-12-05T08:03:47.420Z,9.88
2018-12-05T08:06:17.947Z,10.07
2018-12-05T08:08:48.326Z,10.10
2018-12-05T08:11:19.400Z,10.32
2018-12-05T08:13:49.671Z,9.93
2018-12-05T08:16:19.740Z,10.06
2018-12-05T08:18:49.418Z,10.20
2018-12-05T08:21:20.258Z,10.35
2018-12-05T08:23:49.872Z,10.19
2018-12-05T08:26:19.561Z,9.94
2018-12-05T08:28:49.217Z,10.04
2018-12-05T08:31:18.895Z,10.02
2018-12-05T08:33:48.508Z,10.13
2018-12-05T08:36:18.289Z,10.17
2018-12-05T08:38:48.250Z,10.16
2018-12-05T08:41:17.871Z,10.37
2018-12-05T08:43:47.458Z,10.31
2018-12-05T08:46:17.126Z,10.45
2018-12-05T08:48:46.780Z,10.52
2018-12-05T08:51:16.438Z,10.69
2018-12-05T08:53:46.120Z,10.79
2018-12-05T08:56:15.856Z,10.93
2018-12-05T08:58:45.474Z,10.89
2018-12-05T09:01:15.178Z,9.41
2018-12-05T09:03:44.852Z,10.71
2018-12-05T09:06:14.524Z,11.01
2018-12-05T09:08:44.211Z,10.85
2018-12-05T09:11:13.949Z,10.87
2018-12-05T09:13:43.612Z,10.87
2018-12-05T09:16:13.284Z,11.02
2018-12-05T09:18:43.006Z,11.40
2018-12-05T09:21:13.413Z,11.12
2018-12-05T09:23:43.329Z,11.45
2018-12-05T09:26:12.923Z,11.30
2018-12-05T09:28:42.566Z,11.52
2018-12-05T09:31:12.204Z,11.32
2018-12-05T09:33:41.861Z,11.62
2018-12-05T09:36:11.535Z,11.65
2018-12-05T09:38:41.307Z,12.00
2018-12-05T09:41:11.260Z,12.26
2018-12-05T09:43:40.874Z,12.19
2018-12-05T09:46:10.530Z,12.27
2018-12-05T09:48:40.188Z,12.61
2018-12-05T09:51:09.896Z,12.63
2018-12-05T09:53:39.786Z,12.54
2018-12-05T09:56:09.493Z,12.65
2018-12-05T09:58:39.132Z,12.97
2018-12-05T10:01:08.791Z,13.06
2018-12-05T10:03:38.477Z,13.99
2018-12-05T10:06:08.169Z,14.08
2018-12-05T10:08:37.889Z,14.17
2018-12-05T10:11:07.576Z,13.72
2018-12-05T10:18:30.011Z,13.74
2018-12-05T10:20:59.729Z,14.30
2018-12-05T10:23:29.461Z,15.82
2018-12-05T10:25:59.155Z,17.09
2018-12-05T10:28:28.855Z,17.95
2018-12-05T10:30:58.580Z,17.60
2018-12-05T10:33:28.297Z,17.96
2018-12-05T10:35:57.934Z,18.22
2018-12-05T10:38:27.604Z,18.68
2018-12-05T10:40:57.316Z,19.82
2018-12-05T10:43:27.296Z,19.94
2018-12-05T10:45:57.190Z,19.78
2018-12-05T10:48:26.714Z,18.59
2018-12-05T10:50:56.327Z,18.91
2018-12-05T10:53:26.001Z,17.13
2018-12-05T10:55:55.786Z,16.66
2018-12-05T10:58:25.600Z,16.52
2018-12-05T11:01:00.283Z,16.58
2018-12-05T11:03:35.676Z,15.83
2018-12-05T11:06:11.801Z,15.79
2018-12-05T11:08:46.742Z,15.79
2018-12-05T11:11:21.432Z,15.65
2018-12-05T11:13:56.211Z,15.54
2018-12-05T11:16:30.901Z,16.03
2018-12-05T11:19:05.746Z,16.17
2018-12-05T11:21:40.556Z,15.66
2018-12-05T11:24:17.255Z,15.88
2018-12-05T11:26:47.063Z,15.88
2018-12-05T11:29:16.757Z,15.72
2018-12-05T11:31:46.501Z,15.55
2018-12-05T11:34:16.171Z,15.67
2018-12-05T11:36:45.843Z,15.57
2018-12-05T11:39:15.528Z,14.77
2018-12-05T11:41:45.193Z,15.30
2018-12-05T11:44:15.113Z,15.11
2018-12-05T11:46:44.799Z,15.28
2018-12-05T11:49:14.561Z,15.18
2018-12-05T11:51:44.240Z,15.54
2018-12-05T11:54:13.938Z,15.03
2018-12-05T11:56:43.557Z,14.87
2018-12-05T11:59:13.289Z,14.33
2018-12-05T12:01:42.909Z,14.17
2018-12-05T12:04:12.721Z,14.77
2018-12-05T12:06:42.462Z,14.75
2018-12-05T12:09:12.374Z,14.76
2018-12-05T12:11:42.127Z,14.82
2018-12-05T12:14:11.820Z,14.78
2018-12-05T12:16:41.492Z,15.11
2018-12-05T12:19:11.139Z,15.12
2018-12-05T12:21:42.885Z,15.24
2018-12-05T12:24:13.505Z,15.14
2018-12-05T12:26:43.027Z,14.98
2018-12-05T12:29:12.689Z,14.70
2018-12-05T12:31:42.409Z,14.79
2018-12-05T12:34:12.000Z,14.33
2018-12-05T12:36:41.579Z,13.91
2018-12-05T12:39:11.223Z,13.54
2018-12-05T12:41:40.878Z,13.73
2018-12-05T12:44:10.645Z,13.56
2018-12-05T12:46:40.826Z,13.41
2018-12-05T12:49:10.462Z,13.32
2018-12-05T12:51:39.990Z,13.75
2018-12-05T12:54:09.737Z,14.00
2018-12-05T12:56:39.320Z,13.90
2018-12-05T12:59:09.129Z,14.09
2018-12-05T13:01:38.790Z,14.01
2018-12-05T13:04:08.316Z,13.77
2018-12-05T13:06:37.999Z,13.90
2018-12-05T13:09:08.824Z,13.69
2018-12-05T13:11:38.487Z,13.60
2018-12-05T13:14:08.207Z,13.85
2018-12-05T13:16:37.865Z,13.41
2018-12-05T13:19:07.555Z,13.75
2018-12-05T13:21:37.223Z,14.00
2018-12-05T13:24:07.038Z,13.86
2018-12-05T13:26:36.734Z,14.01
2018-12-05T13:29:06.517Z,14.13
2018-12-05T13:31:36.108Z,13.90
2018-12-05T13:34:05.816Z,13.72
2018-12-05T13:36:35.545Z,13.85
2018-12-05T13:39:07.311Z,14.04
2018-12-05T13:41:36.958Z,13.86
2018-12-05T13:44:07.505Z,14.14
2018-12-05T13:46:37.380Z,13.80
2018-12-05T13:50:10.143Z,13.14
2018-12-05T13:52:40.097Z,12.77
2018-12-05T13:55:09.739Z,12.90
2018-12-05T13:57:39.393Z,13.09
2018-12-05T14:00:09.870Z,12.89
2018-12-05T14:02:39.426Z,12.75
2018-12-05T14:05:09.209Z,13.01
2018-12-05T14:07:38.774Z,13.10
2018-12-05T14:10:08.479Z,12.99
2018-12-05T14:12:40.276Z,12.99
2018-12-05T14:15:11.419Z,12.73
2018-12-05T14:17:41.183Z,12.38
2018-12-05T14:20:10.899Z,12.49
2018-12-05T14:22:41.194Z,12.52
2018-12-05T14:25:11.066Z,12.30
2018-12-05T14:27:40.718Z,11.92
2018-12-05T14:30:10.510Z,11.60
2018-12-05T14:32:40.140Z,11.67
2018-12-05T14:35:09.776Z,11.74
2018-12-05T14:37:39.384Z,11.86
2018-12-05T14:40:09.106Z,11.44
2018-12-05T14:42:38.697Z,11.60
2018-12-05T14:45:08.396Z,11.27
2018-12-05T14:47:38.153Z,11.12
2018-12-05T14:50:08.020Z,11.16
2018-12-05T14:52:37.929Z,11.11
2018-12-05T14:55:07.755Z,11.11
2018-12-05T14:57:37.401Z,11.29
2018-12-05T15:00:07.902Z,11.33
2018-12-05T15:02:37.587Z,11.07
2018-12-05T15:05:07.321Z,11.32
2018-12-05T15:07:37.063Z,10.98
2018-12-05T15:10:07.119Z,11.08
2018-12-05T15:12:36.771Z,10.81
2018-12-05T15:15:06.737Z,11.10
2018-12-05T15:17:36.434Z,10.42
2018-12-05T15:20:06.198Z,10.57
2018-12-05T15:22:35.879Z,10.57
2018-12-05T15:25:05.914Z,10.69
2018-12-05T15:27:35.604Z,10.77
2018-12-05T15:30:05.824Z,10.65
2018-12-05T15:32:35.635Z,9.99
2018-12-05T15:35:05.472Z,10.36
2018-12-05T15:37:34.985Z,10.30
2018-12-05T15:40:04.722Z,10.42
2018-12-05T15:42:35.697Z,10.53
2018-12-05T15:45:06.591Z,10.43
2018-12-05T15:47:37.065Z,10.05
2018-12-05T15:50:08.169Z,10.17
2018-12-05T15:52:38.220Z,10.13
2018-12-05T15:55:08.499Z,10.21
2018-12-05T15:57:38.123Z,10.02
2018-12-05T16:00:09.487Z,10.25
2018-12-05T16:02:39.694Z,10.19
2018-12-05T16:05:09.234Z,9.81
2018-12-05T16:07:38.825Z,9.91
2018-12-05T16:10:09.339Z,9.88
2018-12-05T16:12:38.994Z,10.07
2018-12-05T16:15:08.802Z,10.01
2018-12-05T16:17:38.407Z,9.97
2018-12-05T16:20:08.104Z,9.54
2018-12-05T16:22:37.785Z,9.43
2018-12-05T16:25:07.456Z,9.47
2018-12-05T16:27:37.096Z,9.57
2018-12-05T16:30:07.121Z,9.64
2018-12-05T16:32:36.789Z,9.93
2018-12-05T16:35:06.640Z,9.91
2018-12-05T16:37:36.256Z,9.54
2018-12-05T16:40:06.589Z,9.74
2018-12-05T16:42:36.386Z,9.65
2018-12-05T16:45:06.916Z,9.84
2018-12-05T16:47:36.476Z,9.77
2018-12-05T16:50:06.706Z,9.38
2018-12-05T16:52:36.939Z,9.30
2018-12-05T16:55:06.847Z,9.36
2018-12-05T16:57:36.668Z,9.43
2018-12-05T17:00:07.783Z,8.98
2018-12-05T17:02:44.458Z,8.70
2018-12-05T17:05:14.539Z,8.73
2018-12-05T17:07:44.379Z,8.56
2018-12-05T17:10:14.273Z,8.80
2018-12-05T17:12:44.189Z,8.72
2018-12-05T17:15:14.184Z,8.78
2018-12-05T17:17:44.591Z,8.92
2018-12-05T17:20:14.588Z,8.40
2018-12-05T17:22:44.976Z,8.71
2018-12-05T17:25:14.853Z,8.35
2018-12-05T17:27:44.824Z,8.67
2018-12-05T17:30:14.669Z,8.69
2018-12-05T17:32:44.471Z,8.60
2018-12-05T17:35:14.341Z,8.68
2018-12-05T17:37:44.212Z,8.97
2018-12-05T17:40:14.136Z,9.19
2018-12-05T17:42:44.593Z,9.23
2018-12-05T17:45:15.233Z,9.04
2018-12-05T17:47:46.345Z,8.77
2018-12-05T17:50:17.012Z,8.89
2018-12-05T17:52:49.584Z,9.05
2018-12-05T17:55:20.319Z,9.01
2018-12-05T17:57:50.952Z,9.17
2018-12-05T18:00:21.611Z,9.02
2018-12-05T18:02:54.107Z,8.92
2018-12-05T18:05:24.640Z,8.81
2018-12-05T18:07:55.048Z,8.66
2018-12-05T18:10:26.401Z,8.60
2018-12-05T18:12:56.897Z,8.18
2018-12-05T18:15:26.747Z,8.26
2018-12-05T18:17:56.792Z,8.41
2018-12-05T18:20:26.622Z,8.66
2018-12-05T18:22:57.335Z,8.70
2018-12-05T18:25:27.167Z,8.40
2018-12-05T18:27:57.018Z,8.37
2018-12-05T18:30:26.917Z,8.76
2018-12-05T18:32:57.166Z,8.88
2018-12-05T18:35:28.209Z,8.76
2018-12-05T18:37:57.828Z,8.19
2018-12-05T18:40:27.608Z,8.06
2018-12-05T18:42:58.381Z,8.50
2018-12-05T18:45:28.253Z,8.37
2018-12-05T18:47:58.208Z,8.24
2018-12-05T18:50:28.131Z,8.05
2018-12-05T18:52:58.855Z,8.59
2018-12-05T18:55:28.755Z,8.00
2018-12-05T18:57:58.700Z,8.27
2018-12-05T19:00:28.632Z,8.55
2018-12-05T19:02:59.265Z,8.51
2018-12-05T19:05:29.230Z,8.32
2018-12-05T19:07:59.521Z,8.49
2018-12-05T19:10:31.114Z,8.23
2018-12-05T19:13:01.754Z,7.78
2018-12-05T19:15:31.713Z,8.32
2018-12-05T19:18:01.572Z,8.54
2018-12-05T19:20:31.506Z,8.68
2018-12-05T19:23:03.085Z,8.55
2018-12-05T19:25:33.888Z,8.03
2018-12-05T19:28:04.936Z,8.07
2018-12-05T19:30:36.317Z,7.78
2018-12-05T19:33:07.037Z,7.50
2018-12-05T19:35:36.991Z,8.01
2018-12-05T19:38:06.821Z,7.79
2018-12-05T19:40:36.656Z,7.77
2018-12-05T19:43:07.373Z,7.88
2018-12-05T19:45:37.240Z,7.35
2018-12-05T19:48:07.141Z,7.90
2018-12-05T19:50:36.981Z,7.84
2018-12-05T19:53:06.908Z,7.62
2018-12-05T19:55:36.858Z,7.25
2018-12-05T19:58:06.842Z,7.66
2018-12-05T20:00:36.809Z,7.50
2018-12-05T20:03:07.080Z,7.19
2018-12-05T20:05:37.495Z,7.03
2018-12-05T20:08:07.335Z,7.17
2018-12-05T20:10:37.051Z,6.94
2018-12-05T20:13:07.800Z,6.82
2018-12-05T20:15:37.703Z,7.32
2018-12-05T20:18:07.777Z,6.75
2018-12-05T20:20:37.606Z,6.77
2018-12-05T20:23:07.971Z,6.65
2018-12-05T20:25:37.830Z,6.87
2018-12-05T20:28:07.684Z,6.42
2018-12-05T20:30:37.504Z,6.52
2018-12-05T20:33:07.391Z,6.72
2018-12-05T20:35:37.230Z,6.73
2018-12-05T20:38:07.067Z,6.68
2018-12-05T20:40:36.922Z,6.77
2018-12-05T20:43:06.776Z,6.66
2018-12-05T20:45:36.673Z,6.69
2018-12-05T20:48:06.670Z,6.54
2018-12-05T20:50:36.535Z,5.98
2018-12-05T20:53:06.388Z,6.11
2018-12-05T20:55:36.234Z,6.17
2018-12-05T20:58:06.122Z,6.16
2018-12-05T21:00:36.023Z,6.36
2018-12-05T21:03:05.970Z,5.90
2018-12-05T21:05:36.986Z,5.98
2018-12-05T21:08:07.585Z,6.25
2018-12-05T21:10:38.914Z,6.20
2018-12-05T21:13:12.637Z,6.19
2018-12-05T21:15:45.954Z,5.55
2018-12-05T21:18:16.479Z,5.77
2018-12-05T21:20:47.640Z,5.97
2018-12-05T21:23:19.072Z,6.33
2018-12-05T21:25:50.748Z,6.48
2018-12-05T21:28:24.309Z,6.57
2018-12-05T21:30:55.173Z,6.85
2018-12-05T21:33:27.832Z,7.33
2018-12-05T21:35:59.587Z,7.14
2018-12-05T21:38:30.766Z,7.02
2018-12-05T21:41:02.415Z,7.20
2018-12-05T21:43:34.772Z,7.04
2018-12-05T21:46:06.170Z,6.48
2018-12-05T21:48:37.412Z,6.12
2018-12-05T21:51:08.779Z,5.88
2018-12-05T21:53:40.693Z,5.92
2018-12-05T21:56:11.300Z,5.88
2018-12-05T21:58:42.093Z,6.35
2018-12-05T22:01:13.294Z,6.60
2018-12-05T22:03:44.990Z,6.36
2018-12-05T22:06:16.687Z,6.19
2018-12-05T22:08:47.312Z,6.70
2018-12-05T22:11:18.014Z,6.96
2018-12-05T22:13:49.672Z,6.08
2018-12-05T22:16:20.211Z,6.27
2018-12-05T22:18:50.657Z,6.23
2018-12-05T22:21:21.081Z,5.80
2018-12-05T22:23:55.358Z,5.97
2018-12-05T22:26:26.355Z,6.57
2018-12-05T22:28:57.158Z,6.37
2018-12-05T22:31:27.902Z,6.64
2018-12-05T22:33:59.049Z,6.04
2018-12-05T22:36:30.146Z,5.86
2018-12-05T22:39:01.200Z,6.21
2018-12-05T22:41:31.931Z,6.09
2018-12-05T22:44:05.908Z,5.67
2018-12-05T22:46:36.308Z,5.30
2018-12-05T22:49:07.053Z,5.64
2018-12-05T22:51:37.435Z,5.73
2018-12-05T22:54:08.610Z,6.15
2018-12-05T22:56:39.218Z,6.14
2018-12-05T22:59:09.766Z,6.04
2018-12-05T23:01:40.289Z,6.10
2018-12-05T23:04:11.302Z,5.69
2018-12-05T23:06:42.749Z,5.76
2018-12-05T23:09:13.245Z,5.91
2018-12-05T23:11:43.692Z,6.08
2018-12-05T23:14:15.268Z,6.06
2018-12-05T23:16:45.916Z,5.85
2018-12-05T23:19:15.609Z,5.81
2018-12-05T23:21:46.374Z,6.03
2018-12-05T23:24:18.024Z,6.10
2018-12-05T23:26:48.810Z,5.90
2018-12-05T23:29:19.193Z,6.03
2018-12-05T23:31:49.812Z,6.13
2018-12-05T23:34:20.580Z,5.75
2018-12-05T23:36:50.956Z,5.90
2018-12-05T23:39:21.482Z,5.81
2018-12-05T23:41:51.368Z,5.89
2018-12-05T23:44:22.086Z,5.86
2018-12-05T23:46:52.267Z,5.50
2018-12-05T23:49:22.864Z,5.40
2018-12-05T23:51:53.292Z,5.37
2018-12-05T23:54:24.758Z,5.56
2018-12-05T23:56:55.456Z,5.64
2018-12-05T23:59:25.883Z,5.59
